createdAt,value
2018-02-09T00:00:48.070Z,9.60
2018-02-09T00:03:15.683Z,9.60
2018-02-09T00:05:44.015Z,9.60
2018-02-09T00:08:11.575Z,9.60
2018-02-09T00:10:39.919Z,9.60
2018-02-09T00:13:07.486Z,9.60
2018-02-09T00:15:35.119Z,9.60
2018-02-09T00:18:03.496Z,9.50
2018-02-09T00:20:31.163Z,9.50
2018-02-09T00:22:59.532Z,9.60
2018-02-09T00:25:27.098Z,9.50
2018-02-09T00:27:55.472Z,9.50
2018-02-09T00:30:23.815Z,9.50
2018-02-09T00:32:51.378Z,9.50
2018-02-09T00:35:18.976Z,9.50
2018-02-09T00:37:46.537Z,9.50
2018-02-09T00:40:14.204Z,9.50
2018-02-09T00:42:42.583Z,9.50
2018-02-09T00:45:11.781Z,9.50
2018-02-09T00:47:40.390Z,9.40
2018-02-09T00:50:08.036Z,9.40
2018-02-09T00:52:36.403Z,9.50
2018-02-09T00:55:03.967Z,9.40
2018-02-09T00:57:31.637Z,9.40
2018-02-09T01:00:00.038Z,9.40
2018-02-09T01:02:27.618Z,9.40
2018-02-09T01:04:55.233Z,9.40
2018-02-09T01:07:22.794Z,9.40
2018-02-09T01:09:51.178Z,9.40
2018-02-09T01:12:19.502Z,9.40
2018-02-09T01:14:47.116Z,9.40
2018-02-09T01:17:15.443Z,9.30
2018-02-09T01:19:43.046Z,9.30
2018-02-09T01:22:11.830Z,9.40
2018-02-09T01:24:39.929Z,9.30
2018-02-09T01:27:08.258Z,9.30
2018-02-09T01:29:35.816Z,9.30
2018-02-09T01:32:03.385Z,9.40
2018-02-09T01:34:30.942Z,9.30
2018-02-09T01:36:58.526Z,9.30
2018-02-09T01:39:26.200Z,9.30
2018-02-09T01:41:54.529Z,9.30
2018-02-09T01:44:22.098Z,9.30
2018-02-09T01:46:49.701Z,9.30
2018-02-09T01:49:18.080Z,9.30
2018-02-09T01:51:46.408Z,9.20
2018-02-09T01:54:14.017Z,9.30
2018-02-09T01:56:41.963Z,9.30
2018-02-09T01:59:10.373Z,9.30
2018-02-09T02:01:38.029Z,9.30
2018-02-09T02:04:06.421Z,9.30
2018-02-09T02:06:34.768Z,9.30
2018-02-09T02:09:02.340Z,9.30
2018-02-09T02:11:29.900Z,9.20
2018-02-09T02:13:57.475Z,9.20
2018-02-09T02:16:25.829Z,9.20
2018-02-09T02:18:53.387Z,9.20
2018-02-09T02:21:20.951Z,9.30
2018-02-09T02:23:48.511Z,9.20
2018-02-09T02:26:16.080Z,9.20
2018-02-09T02:28:43.757Z,9.20
2018-02-09T02:31:12.089Z,9.20
2018-02-09T02:33:40.683Z,9.20
2018-02-09T02:36:09.033Z,9.20
2018-02-09T02:38:36.664Z,9.20
2018-02-09T02:41:04.992Z,9.20
2018-02-09T02:43:32.596Z,9.20
2018-02-09T02:46:00.984Z,9.20
2018-02-09T02:48:29.316Z,9.20
2018-02-09T02:50:56.890Z,9.10
2018-02-09T02:53:24.447Z,9.10
2018-02-09T02:55:52.042Z,9.20
2018-02-09T02:58:20.412Z,9.20
2018-02-09T03:00:47.992Z,9.20
2018-02-09T03:03:16.324Z,9.20
2018-02-09T03:05:43.919Z,9.20
2018-02-09T03:08:12.298Z,9.10
2018-02-09T03:10:41.975Z,9.20
2018-02-09T03:13:09.968Z,9.10
2018-02-09T03:15:37.539Z,9.10
2018-02-09T03:18:05.920Z,9.10
2018-02-09T03:20:33.583Z,9.10
2018-02-09T03:23:01.965Z,9.10
2018-02-09T03:25:30.337Z,9.10
2018-02-09T03:27:57.902Z,9.10
2018-02-09T03:30:26.282Z,9.10
2018-02-09T03:32:54.610Z,9.10
2018-02-09T03:35:22.169Z,9.10
2018-02-09T03:37:49.748Z,9.10
2018-02-09T03:40:17.336Z,9.10
2018-02-09T03:42:44.999Z,9.10
2018-02-09T03:45:13.388Z,9.10
2018-02-09T03:47:41.727Z,9.10
2018-02-09T03:50:09.848Z,9.10
2018-02-09T03:52:38.181Z,9.00
2018-02-09T03:55:05.754Z,9.10
2018-02-09T03:57:33.335Z,9.10
2018-02-09T04:00:01.711Z,9.00
2018-02-09T04:02:29.271Z,9.10
2018-02-09T04:04:56.853Z,9.10
2018-02-09T04:07:24.431Z,9.10
2018-02-09T04:09:52.004Z,9.10
2018-02-09T04:12:19.617Z,9.10
2018-02-09T04:14:47.951Z,9.00
2018-02-09T04:17:15.527Z,9.00
2018-02-09T04:19:43.088Z,9.00
2018-02-09T04:22:11.619Z,9.00
2018-02-09T04:24:39.996Z,9.00
2018-02-09T04:27:08.352Z,9.00
2018-02-09T04:29:36.748Z,9.00
2018-02-09T04:32:05.094Z,9.00
2018-02-09T04:34:32.666Z,9.10
2018-02-09T04:37:00.238Z,9.00
2018-02-09T04:39:28.626Z,9.10
2018-02-09T04:41:56.997Z,9.00
2018-02-09T04:44:25.397Z,9.00
2018-02-09T04:46:52.976Z,9.00
2018-02-09T04:49:20.542Z,9.00
2018-02-09T04:51:48.175Z,9.00
2018-02-09T04:54:16.543Z,9.00
2018-02-09T04:56:44.890Z,9.00
2018-02-09T04:59:12.480Z,9.00
2018-02-09T05:01:42.058Z,9.10
2018-02-09T05:04:10.304Z,9.00
2018-02-09T05:06:37.906Z,9.10
2018-02-09T05:09:05.462Z,9.00
2018-02-09T05:11:33.029Z,9.00
2018-02-09T05:14:00.624Z,9.00
2018-02-09T05:16:28.196Z,9.00
2018-02-09T05:18:55.766Z,9.00
2018-02-09T05:21:23.413Z,9.00
2018-02-09T05:23:51.054Z,9.00
2018-02-09T05:26:19.548Z,9.00
2018-02-09T05:28:47.888Z,9.10
2018-02-09T05:31:15.584Z,9.10
2018-02-09T05:33:43.917Z,9.00
2018-02-09T05:36:11.997Z,9.00
2018-02-09T05:38:40.012Z,9.00
2018-02-09T05:41:08.387Z,9.00
2018-02-09T05:43:36.719Z,9.00
2018-02-09T05:46:04.324Z,9.00
2018-02-09T05:48:32.700Z,9.00
2018-02-09T05:51:01.043Z,9.00
2018-02-09T05:53:28.609Z,9.00
2018-02-09T05:55:56.211Z,9.00
2018-02-09T05:58:23.899Z,9.00
2018-02-09T06:00:51.470Z,9.00
2018-02-09T06:03:19.177Z,9.00
2018-02-09T06:05:47.587Z,9.00
2018-02-09T06:08:15.217Z,9.00
2018-02-09T06:10:42.910Z,9.00
2018-02-09T06:13:10.484Z,9.00
2018-02-09T06:15:38.063Z,9.00
2018-02-09T06:18:05.683Z,9.00
2018-02-09T06:20:34.010Z,9.00
2018-02-09T06:23:01.611Z,9.00
2018-02-09T06:25:29.947Z,9.00
2018-02-09T06:27:57.549Z,9.00
2018-02-09T06:30:25.226Z,9.00
2018-02-09T06:32:53.559Z,9.00
2018-02-09T06:35:21.145Z,9.00
2018-02-09T06:37:48.714Z,9.00
2018-02-09T06:40:16.283Z,9.00
2018-02-09T06:42:44.655Z,9.00
2018-02-09T06:45:13.039Z,9.00
2018-02-09T06:47:42.620Z,9.00
2018-02-09T06:50:11.085Z,9.00
2018-02-09T06:52:38.688Z,9.00
2018-02-09T06:55:07.016Z,9.00
2018-02-09T06:57:34.587Z,9.00
2018-02-09T07:00:02.198Z,9.00
2018-02-09T07:02:30.575Z,9.00
2018-02-09T07:04:58.919Z,9.00
2018-02-09T07:07:26.490Z,9.00
2018-02-09T07:09:54.089Z,9.00
2018-02-09T07:12:22.449Z,8.90
2018-02-09T07:14:50.774Z,9.00
2018-02-09T07:17:18.402Z,9.00
2018-02-09T07:19:46.765Z,9.00
2018-02-09T07:22:15.088Z,9.00
2018-02-09T07:24:42.671Z,9.00
2018-02-09T07:27:11.260Z,9.00
2018-02-09T07:29:38.833Z,9.00
2018-02-09T07:32:06.392Z,9.00
2018-02-09T07:34:33.983Z,9.00
2018-02-09T07:37:02.351Z,9.00
2018-02-09T07:39:30.728Z,9.00
2018-02-09T07:41:58.295Z,9.00
2018-02-09T07:44:26.627Z,9.00
2018-02-09T07:46:54.189Z,9.00
2018-02-09T07:49:21.810Z,9.00
2018-02-09T07:51:49.375Z,9.00
2018-02-09T07:54:17.013Z,9.00
2018-02-09T07:56:45.352Z,9.00
2018-02-09T07:59:12.905Z,8.90
2018-02-09T08:01:40.482Z,9.00
2018-02-09T08:04:08.077Z,9.00
2018-02-09T08:06:35.670Z,8.90
2018-02-09T08:09:03.229Z,8.90
2018-02-09T08:11:30.800Z,9.00
2018-02-09T08:13:58.373Z,8.90
2018-02-09T08:16:25.940Z,9.00
2018-02-09T08:18:53.520Z,8.90
2018-02-09T08:21:21.088Z,9.00
2018-02-09T08:23:48.764Z,9.00
2018-02-09T08:26:17.139Z,8.90
2018-02-09T08:28:45.470Z,8.90
2018-02-09T08:31:13.049Z,9.00
2018-02-09T08:33:41.875Z,9.00
2018-02-09T08:36:11.158Z,9.00
2018-02-09T08:38:38.840Z,9.00
2018-02-09T08:41:07.215Z,9.00
2018-02-09T08:43:35.582Z,8.90
2018-02-09T08:46:03.130Z,8.90
2018-02-09T08:48:30.716Z,8.90
2018-02-09T08:50:59.093Z,9.00
2018-02-09T08:53:27.443Z,8.90
2018-02-09T08:55:55.023Z,8.90
2018-02-09T08:58:22.692Z,9.00
2018-02-09T09:00:51.024Z,9.00
2018-02-09T09:03:18.604Z,9.00
2018-02-09T09:05:46.178Z,8.90
2018-02-09T09:08:13.746Z,8.90
2018-02-09T09:10:42.230Z,8.90
2018-02-09T09:13:09.912Z,8.90
2018-02-09T09:15:38.283Z,9.00
2018-02-09T09:18:06.648Z,8.90
2018-02-09T09:20:35.055Z,9.00
2018-02-09T09:23:02.706Z,8.90
2018-02-09T09:25:31.031Z,8.90
2018-02-09T09:27:58.648Z,8.90
2018-02-09T09:30:27.025Z,8.90
2018-02-09T09:32:55.356Z,9.00
2018-02-09T09:35:22.922Z,8.90
2018-02-09T09:37:50.491Z,8.90
2018-02-09T09:40:18.054Z,8.90
2018-02-09T09:42:45.615Z,8.90
2018-02-09T09:45:13.340Z,8.90
2018-02-09T09:47:42.090Z,9.00
2018-02-09T09:50:10.432Z,9.00
2018-02-09T09:52:38.074Z,9.00
2018-02-09T09:55:05.691Z,9.00
2018-02-09T09:57:33.355Z,8.90
2018-02-09T10:00:01.844Z,8.90
2018-02-09T10:02:40.660Z,8.90
2018-02-09T10:05:09.047Z,8.90
2018-02-09T10:07:37.420Z,8.90
2018-02-09T10:10:05.800Z,9.00
2018-02-09T10:12:34.182Z,8.90
2018-02-09T10:15:02.565Z,8.90
2018-02-09T10:17:30.128Z,8.90
2018-02-09T10:19:57.725Z,8.90
2018-02-09T10:22:25.286Z,9.00
2018-02-09T10:24:52.862Z,9.00
2018-02-09T10:27:21.232Z,8.90
2018-02-09T10:29:48.905Z,8.90
2018-02-09T10:32:17.242Z,8.90
2018-02-09T10:34:44.840Z,9.00
2018-02-09T10:37:13.244Z,9.00
2018-02-09T10:39:40.804Z,9.00
2018-02-09T10:42:08.379Z,8.90
2018-02-09T10:44:35.997Z,9.00
2018-02-09T10:47:04.369Z,9.00
2018-02-09T10:49:32.767Z,9.00
2018-02-09T10:52:01.127Z,9.00
2018-02-09T10:54:28.691Z,9.00
2018-02-09T10:56:56.264Z,9.00
2018-02-09T10:59:24.596Z,9.00
2018-02-09T11:01:52.152Z,9.00
2018-02-09T11:04:19.754Z,9.00
2018-02-09T11:06:48.818Z,8.90
2018-02-09T11:09:21.942Z,9.00
2018-02-09T11:11:49.501Z,8.90
2018-02-09T11:14:18.067Z,9.00
2018-02-09T11:16:45.642Z,9.00
2018-02-09T11:19:13.207Z,8.90
2018-02-09T11:21:41.532Z,9.00
2018-02-09T11:24:09.151Z,9.00
2018-02-09T11:26:37.475Z,9.00
2018-02-09T11:29:05.048Z,9.00
2018-02-09T11:31:32.651Z,9.00
2018-02-09T11:34:01.003Z,9.00
2018-02-09T11:36:28.573Z,9.00
2018-02-09T11:38:56.157Z,8.90
2018-02-09T11:41:24.543Z,8.90
2018-02-09T11:43:52.872Z,9.00
2018-02-09T11:46:20.470Z,9.00
2018-02-09T11:48:48.801Z,9.00
2018-02-09T11:51:17.625Z,8.90
2018-02-09T11:53:45.188Z,8.90
2018-02-09T11:56:12.767Z,9.00
2018-02-09T11:58:41.100Z,9.00
2018-02-09T12:01:08.695Z,9.00
2018-02-09T12:03:36.364Z,9.00
2018-02-09T12:06:04.696Z,9.00
2018-02-09T12:08:32.312Z,9.00
2018-02-09T12:11:00.684Z,9.00
2018-02-09T12:13:29.061Z,8.90
2018-02-09T12:15:57.399Z,9.00
2018-02-09T12:18:24.970Z,9.00
2018-02-09T12:20:52.564Z,9.00
2018-02-09T12:23:20.887Z,9.00
2018-02-09T12:25:48.458Z,9.00
2018-02-09T12:28:16.794Z,8.90
2018-02-09T12:30:45.155Z,9.00
2018-02-09T12:33:12.732Z,9.00
2018-02-09T12:35:41.107Z,9.00
2018-02-09T12:38:09.480Z,9.00
2018-02-09T12:40:37.855Z,9.00
2018-02-09T12:43:05.411Z,9.00
2018-02-09T12:45:33.079Z,9.00
2018-02-09T12:48:01.470Z,9.00
2018-02-09T12:50:29.800Z,9.00
2018-02-09T12:52:57.362Z,9.00
2018-02-09T12:55:24.927Z,9.00
2018-02-09T12:57:52.493Z,9.00
2018-02-09T13:00:20.070Z,9.00
2018-02-09T13:02:48.469Z,8.90
2018-02-09T13:05:17.869Z,9.00
2018-02-09T13:07:46.665Z,9.00
2018-02-09T13:10:14.319Z,9.00
2018-02-09T13:12:54.557Z,9.00
2018-02-09T13:15:22.125Z,9.00
2018-02-09T13:17:49.795Z,9.00
2018-02-09T13:20:18.901Z,9.00
2018-02-09T13:22:59.255Z,9.00
2018-02-09T13:25:27.600Z,8.90
2018-02-09T13:27:55.190Z,8.90
2018-02-09T13:30:22.770Z,9.00
2018-02-09T13:33:02.878Z,9.00
2018-02-09T13:35:30.451Z,9.00
2018-02-09T13:37:58.116Z,8.90
2018-02-09T13:40:25.683Z,9.00
2018-02-09T13:42:53.241Z,9.00
2018-02-09T13:45:20.821Z,9.00
2018-02-09T13:47:49.195Z,9.00
2018-02-09T13:50:18.801Z,9.00
2018-02-09T13:52:47.143Z,9.00
2018-02-09T13:55:14.881Z,9.00
2018-02-09T13:57:42.452Z,9.00
2018-02-09T14:00:10.027Z,9.00
2018-02-09T14:02:37.629Z,9.00
2018-02-09T14:05:06.003Z,9.00
2018-02-09T14:07:33.660Z,9.00
2018-02-09T14:10:01.332Z,9.00
2018-02-09T14:12:29.652Z,9.00
2018-02-09T14:14:57.283Z,9.00
2018-02-09T14:17:25.608Z,9.00
2018-02-09T14:19:53.177Z,9.00
2018-02-09T14:22:20.779Z,9.00
2018-02-09T14:24:49.152Z,9.00
2018-02-09T14:27:18.449Z,9.00
2018-02-09T14:29:48.155Z,9.00
2018-02-09T14:32:15.714Z,9.00
2018-02-09T14:34:43.278Z,9.00
2018-02-09T14:37:10.838Z,9.00
2018-02-09T14:39:38.508Z,9.00
2018-02-09T14:42:06.886Z,9.00
2018-02-09T14:44:35.269Z,9.00
2018-02-09T14:47:03.653Z,9.00
2018-02-09T14:49:32.053Z,8.90
2018-02-09T14:51:59.626Z,9.00
2018-02-09T14:54:27.296Z,9.00
2018-02-09T14:56:55.905Z,9.00
2018-02-09T14:59:23.493Z,9.00
2018-02-09T15:01:51.825Z,8.90
2018-02-09T15:04:19.381Z,9.00
2018-02-09T15:06:47.993Z,9.00
2018-02-09T15:09:15.555Z,9.00
2018-02-09T15:11:43.149Z,8.90
2018-02-09T15:14:11.478Z,9.00
2018-02-09T15:16:39.047Z,9.00
2018-02-09T15:19:06.633Z,8.90
2018-02-09T15:21:34.970Z,9.00
2018-02-09T15:24:02.537Z,8.90
2018-02-09T15:26:30.112Z,8.90
2018-02-09T15:28:57.678Z,9.00
2018-02-09T15:31:25.250Z,9.00
2018-02-09T15:33:52.912Z,9.00
2018-02-09T15:36:20.619Z,9.00
2018-02-09T15:38:49.040Z,9.00
2018-02-09T15:41:17.570Z,8.90
2018-02-09T15:43:45.940Z,9.00
2018-02-09T15:46:14.278Z,9.00
2018-02-09T15:48:41.876Z,8.90
2018-02-09T15:51:10.204Z,8.90
2018-02-09T15:53:37.795Z,8.80
2018-02-09T15:56:05.468Z,8.90
2018-02-09T15:58:33.919Z,8.90
2018-02-09T16:01:01.505Z,8.90
2018-02-09T16:03:29.076Z,8.90
2018-02-09T16:05:57.456Z,9.00
2018-02-09T16:08:25.797Z,8.90
2018-02-09T16:10:53.355Z,8.90
2018-02-09T16:13:20.970Z,8.90
2018-02-09T16:15:48.609Z,9.00
2018-02-09T16:18:16.700Z,8.90
2018-02-09T16:20:45.029Z,8.90
2018-02-09T16:23:12.590Z,8.90
2018-02-09T16:25:40.151Z,8.90
2018-02-09T16:28:07.712Z,8.90
2018-02-09T16:30:35.525Z,8.90
2018-02-09T16:33:03.124Z,8.90
2018-02-09T16:35:30.699Z,8.90
2018-02-09T16:37:58.263Z,8.90
2018-02-09T16:40:25.876Z,8.90
2018-02-09T16:42:53.472Z,8.90
2018-02-09T16:45:21.038Z,8.90
2018-02-09T16:47:48.601Z,8.90
2018-02-09T16:50:16.725Z,8.90
2018-02-09T16:52:45.047Z,8.90
2018-02-09T16:55:12.607Z,8.90
2018-02-09T16:57:40.174Z,8.90
2018-02-09T17:00:07.788Z,9.00
2018-02-09T17:02:36.125Z,8.90
2018-02-09T17:05:03.696Z,8.90
2018-02-09T17:07:31.254Z,8.90
2018-02-09T17:09:58.820Z,8.90
2018-02-09T17:12:26.388Z,8.90
2018-02-09T17:14:54.721Z,8.90
2018-02-09T17:17:22.343Z,8.90
2018-02-09T17:19:50.685Z,8.90
2018-02-09T17:22:18.257Z,8.90
2018-02-09T17:24:45.821Z,8.90
2018-02-09T17:27:13.500Z,8.90
2018-02-09T17:29:41.839Z,8.90
2018-02-09T17:32:09.444Z,8.90
2018-02-09T17:34:37.784Z,8.90
2018-02-09T17:37:05.377Z,8.90
2018-02-09T17:39:33.723Z,8.90
2018-02-09T17:42:01.334Z,8.90
2018-02-09T17:44:28.940Z,9.00
2018-02-09T17:46:56.535Z,8.90
2018-02-09T17:49:24.255Z,8.90
2018-02-09T17:51:51.906Z,8.90
2018-02-09T17:54:19.641Z,8.90
2018-02-09T17:56:47.227Z,8.90
2018-02-09T17:59:14.868Z,8.90
2018-02-09T18:01:42.430Z,8.90
2018-02-09T18:04:10.089Z,8.80
2018-02-09T18:06:37.671Z,8.90
2018-02-09T18:09:05.295Z,8.90
2018-02-09T18:11:33.640Z,8.90
2018-02-09T18:14:01.213Z,8.90
2018-02-09T18:16:28.783Z,8.80
2018-02-09T18:18:56.411Z,8.90
2018-02-09T18:21:23.975Z,8.90
2018-02-09T18:23:51.541Z,8.90
2018-02-09T18:26:19.105Z,8.90
2018-02-09T18:28:46.788Z,8.80
2018-02-09T18:31:14.358Z,8.90
2018-02-09T18:33:42.033Z,8.80
2018-02-09T18:36:10.404Z,8.90
2018-02-09T18:38:38.749Z,8.90
2018-02-09T18:41:06.328Z,8.80
2018-02-09T18:43:34.012Z,8.90
2018-02-09T18:46:02.339Z,8.80
2018-02-09T18:48:29.955Z,8.80
2018-02-09T18:50:58.298Z,8.80
2018-02-09T18:53:25.884Z,8.80
2018-02-09T18:55:54.300Z,8.80
2018-02-09T18:58:21.874Z,8.80
2018-02-09T19:00:49.463Z,8.80
2018-02-09T19:03:18.002Z,8.80
2018-02-09T19:05:45.574Z,8.80
2018-02-09T19:08:13.168Z,8.80
2018-02-09T19:10:40.743Z,8.80
2018-02-09T19:13:08.437Z,8.80
2018-02-09T19:15:36.078Z,8.80
2018-02-09T19:18:04.432Z,8.80
2018-02-09T19:20:32.153Z,8.80
2018-02-09T19:22:59.804Z,8.80
2018-02-09T19:25:27.451Z,8.90
2018-02-09T19:27:55.825Z,8.80
2018-02-09T19:30:23.496Z,8.80
2018-02-09T19:32:51.872Z,8.80
2018-02-09T19:35:20.217Z,8.80
2018-02-09T19:37:48.436Z,8.80
2018-02-09T19:40:17.814Z,8.80
2018-02-09T19:42:45.488Z,8.80
2018-02-09T19:45:13.883Z,8.80
2018-02-09T19:47:42.212Z,8.80
2018-02-09T19:50:09.775Z,8.80
2018-02-09T19:52:37.344Z,8.80
2018-02-09T19:55:04.905Z,8.80
2018-02-09T19:57:33.742Z,8.80
2018-02-09T20:00:02.441Z,8.80
2018-02-09T20:02:30.070Z,8.80
2018-02-09T20:04:58.566Z,8.80
2018-02-09T20:07:26.899Z,8.80
2018-02-09T20:09:54.502Z,8.80
2018-02-09T20:12:22.839Z,8.80
2018-02-09T20:14:50.436Z,8.80
2018-02-09T20:17:18.770Z,8.80
2018-02-09T20:19:47.620Z,8.80
2018-02-09T20:22:15.199Z,8.80
2018-02-09T20:24:42.761Z,8.80
2018-02-09T20:27:10.659Z,8.80
2018-02-09T20:29:38.244Z,8.80
2018-02-09T20:32:06.135Z,8.80
2018-02-09T20:34:33.972Z,8.80
2018-02-09T20:37:01.543Z,8.80
2018-02-09T20:39:29.940Z,8.80
2018-02-09T20:41:58.316Z,8.80
2018-02-09T20:44:26.738Z,8.80
2018-02-09T20:46:54.384Z,8.80
2018-02-09T20:49:22.129Z,8.70
2018-02-09T20:51:49.701Z,8.80
2018-02-09T20:54:17.334Z,8.80
2018-02-09T20:56:45.732Z,8.80
2018-02-09T20:59:13.317Z,8.80
2018-02-09T21:01:40.955Z,8.70
2018-02-09T21:04:08.685Z,8.80
2018-02-09T21:06:36.849Z,8.70
2018-02-09T21:09:04.439Z,8.80
2018-02-09T21:11:32.768Z,8.70
2018-02-09T21:14:00.335Z,8.80
2018-02-09T21:16:27.946Z,8.80
2018-02-09T21:18:56.361Z,8.80
2018-02-09T21:21:23.944Z,8.80
2018-02-09T21:23:51.563Z,8.80
2018-02-09T21:26:19.348Z,8.80
2018-02-09T21:28:47.878Z,8.80
2018-02-09T21:31:15.446Z,8.80
2018-02-09T21:33:43.863Z,8.70
2018-02-09T21:36:11.551Z,8.80
2018-02-09T21:38:39.974Z,8.70
2018-02-09T21:41:07.630Z,8.70
2018-02-09T21:43:35.297Z,8.80
2018-02-09T21:46:03.668Z,8.70
2018-02-09T21:48:31.248Z,8.80
2018-02-09T21:50:59.614Z,8.70
2018-02-09T21:53:27.948Z,8.80
2018-02-09T21:55:55.569Z,8.70
2018-02-09T21:58:23.907Z,8.80
2018-02-09T22:00:51.573Z,8.70
2018-02-09T22:03:19.978Z,8.80
2018-02-09T22:05:48.631Z,8.80
2018-02-09T22:08:16.753Z,8.70
2018-02-09T22:11:12.495Z,8.80
2018-02-09T22:13:40.069Z,8.70
2018-02-09T22:16:07.632Z,8.70
2018-02-09T22:18:35.204Z,8.80
2018-02-09T22:21:03.602Z,8.80
2018-02-09T22:23:31.209Z,8.70
2018-02-09T22:25:59.052Z,8.70
2018-02-09T22:28:27.427Z,8.80
2018-02-09T22:30:55.786Z,8.70
2018-02-09T22:33:24.118Z,8.70
2018-02-09T22:35:51.679Z,8.70
2018-02-09T22:38:19.239Z,8.70
2018-02-09T22:40:47.481Z,8.70
2018-02-09T22:43:15.816Z,8.80
2018-02-09T22:45:43.418Z,8.70
2018-02-09T22:48:10.989Z,8.70
2018-02-09T22:50:39.315Z,8.70
2018-02-09T22:53:06.884Z,8.70
2018-02-09T22:55:34.450Z,8.70
2018-02-09T22:58:02.042Z,8.70
2018-02-09T23:00:30.436Z,8.70
2018-02-09T23:02:58.796Z,8.70
2018-02-09T23:05:27.132Z,8.70
2018-02-09T23:07:54.760Z,8.70
2018-02-09T23:10:23.088Z,8.70
2018-02-09T23:12:50.658Z,8.70
2018-02-09T23:15:19.571Z,8.70
2018-02-09T23:17:49.083Z,8.70
2018-02-09T23:20:18.677Z,8.70
2018-02-09T23:22:49.116Z,8.70
2018-02-09T23:25:18.222Z,8.80
2018-02-09T23:27:47.813Z,8.70
2018-02-09T23:30:19.367Z,8.70
2018-02-09T23:32:48.427Z,8.70
2018-02-09T23:35:16.764Z,8.70
2018-02-09T23:37:45.104Z,8.70
2018-02-09T23:40:12.667Z,8.70
2018-02-09T23:42:40.219Z,8.70
2018-02-09T23:45:08.725Z,8.70
2018-02-09T23:47:36.380Z,8.70
2018-02-09T23:50:03.947Z,8.80
2018-02-09T23:52:31.605Z,8.70
2018-02-09T23:54:59.279Z,8.70
2018-02-09T23:57:27.615Z,8.70
2018-02-09T23:59:55.213Z,8.70
